»·PEaware :: N232BB KPSP-KLAS

N232BB :: KPSP-KLAS

FLIGHT INFORMATION

Flight Status: Arrived
Operator: Privately registered:
United States
More flights under this callsign
Pilot: Anonymous 28238 (28238)
Aircraft: CIRRUS SR-22
(SR22)
More flights by this aircraft type
Origin: KPSP Palm Springs Intl
United States
Destination: KLAS McCarran Intl
United States
More flights between these airports :: More routes between these airports
Route: +
File this flight plan on PilotEdge
Remarks:
Altitude:
(Current/Filed)
4,500ft
Speed:
(Current/Filed)
0kts
Departed: 23-Mar-20 04:22 PM
Arrived: 23-Mar-20 05:28 PM
Distance/Time
Traveled:
151nm/1:06
Distance/Time
To Go:
Arrived

Flight Plot

Page will automatically refresh every two minutes.

Flight plan parsing failed; only flown route is shown


Map Options




Map Legend


Flown Route
Filed Route
Departure Airport
Arrival Airport
Navaid (VOR, NDB)
Fix

Horizontal Profiles

Position Reports

Time Latitude Longitude Heading Altitude Ground
Speed
23-Mar-20 16:20 33.869817 -116.449053 20 2930ft 141kts
23-Mar-20 16:21 33.907519 -116.435027 29 3933ft 143kts
23-Mar-20 16:22 33.941719 -116.412500 26 5096ft 137kts
23-Mar-20 16:23 33.975537 -116.392368 25 6279ft 134kts
23-Mar-20 16:24 34.009089 -116.372761 25 7339ft 140kts
23-Mar-20 16:25 34.049662 -116.350631 24 7404ft 174kts
23-Mar-20 16:26 34.094491 -116.325674 25 7398ft 177kts
23-Mar-20 16:27 34.139110 -116.300015 25 7398ft 177kts
23-Mar-20 16:28 34.185734 -116.302939 341 7403ft 177kts
23-Mar-20 16:29 34.231304 -116.325532 335 7398ft 177kts
23-Mar-20 16:30 34.276400 -116.350557 335 7398ft 177kts
23-Mar-20 16:31 34.322438 -116.376287 335 7379ft 191kts
23-Mar-20 16:32 34.368505 -116.402075 335 7397ft 178kts
23-Mar-20 16:33 34.411988 -116.426622 334 7392ft 162kts
23-Mar-20 16:34 34.451830 -116.449253 334 7397ft 156kts
23-Mar-20 16:35 34.490991 -116.471624 334 7398ft 155kts
23-Mar-20 16:36 34.529994 -116.494027 334 7398ft 155kts
23-Mar-20 16:37 34.569024 -116.516570 334 7398ft 155kts
23-Mar-20 16:38 34.607971 -116.539187 334 7398ft 155kts
23-Mar-20 16:39 34.646028 -116.540538 46 7409ft 154kts
23-Mar-20 16:40 34.675175 -116.501904 47 7398ft 155kts
23-Mar-20 16:41 34.707156 -116.466454 38 7398ft 155kts
23-Mar-20 16:42 34.741421 -116.434464 36 7398ft 155kts
23-Mar-20 16:43 34.775971 -116.402982 36 7398ft 155kts
23-Mar-20 16:44 34.813394 -116.369836 35 6803ft 172kts
23-Mar-20 16:45 34.851904 -116.335403 37 6396ft 165kts
23-Mar-20 16:46 34.887204 -116.302358 37 6397ft 157kts
23-Mar-20 16:47 34.921878 -116.270297 36 6398ft 156kts
23-Mar-20 16:48 34.956545 -116.238553 36 6398ft 156kts
23-Mar-20 16:49 34.991247 -116.206823 36 6398ft 156kts
23-Mar-20 16:50 35.025975 -116.175049 36 6398ft 156kts
23-Mar-20 16:51 35.062337 -116.142412 35 6323ft 177kts
23-Mar-20 16:52 35.098616 -116.109174 37 6396ft 157kts
23-Mar-20 16:53 35.133190 -116.076878 37 6398ft 156kts
23-Mar-20 16:54 35.167773 -116.044979 36 6398ft 156kts
23-Mar-20 16:55 35.202450 -116.013057 36 6398ft 156kts
23-Mar-20 16:56 35.237199 -115.981048 36 6398ft 156kts
23-Mar-20 16:57 35.271869 -115.949079 36 6398ft 156kts
23-Mar-20 16:58 35.306500 -115.917111 36 6398ft 156kts
23-Mar-20 16:59 35.341912 -115.884709 37 6345ft 153kts
23-Mar-20 17:00 35.375774 -115.852890 37 6399ft 155kts
23-Mar-20 17:01 35.410341 -115.820973 36 6398ft 156kts
23-Mar-20 17:02 35.444929 -115.788950 37 6404ft 155kts
23-Mar-20 17:03 35.475974 -115.758808 38 7014ft 133kts
23-Mar-20 17:04 35.505352 -115.730672 36 7409ft 142kts
23-Mar-20 17:05 35.539147 -115.700602 36 7400ft 154kts
23-Mar-20 17:06 35.573725 -115.669012 36 7398ft 155kts
23-Mar-20 17:07 35.593975 -115.624641 83 7400ft 155kts
23-Mar-20 17:08 35.597690 -115.571788 75 7397ft 155kts
23-Mar-20 17:09 35.630079 -115.546376 45 7488ft 157kts
23-Mar-20 17:10 35.660957 -115.507615 45 7397ft 157kts
23-Mar-20 17:11 35.693662 -115.468887 40 6948ft 171kts
23-Mar-20 17:12 35.734450 -115.438174 25 6442ft 168kts
23-Mar-20 17:13 35.767257 -115.408137 69 6418ft 131kts
23-Mar-20 17:14 35.783955 -115.373794 32 6193ft 132kts
23-Mar-20 17:15 35.810673 -115.341200 53 5544ft 140kts
23-Mar-20 17:16 35.831168 -115.302268 46 5261ft 141kts
23-Mar-20 17:17 35.862841 -115.273893 10 5234ft 140kts
23-Mar-20 17:18 35.904383 -115.271946 5 4701ft 157kts
23-Mar-20 17:19 35.948719 -115.261057 15 4327ft 159kts
23-Mar-20 17:20 35.989223 -115.244863 14 4241ft 159kts
23-Mar-20 17:21 36.032792 -115.221453 35 3698ft 176kts
23-Mar-20 17:22 36.071795 -115.184881 34 3342ft 171kts
23-Mar-20 17:23 36.110062 -115.160750 20 3445ft 132kts
23-Mar-20 17:24 36.144431 -115.149921 44 3475ft 113kts
23-Mar-20 17:25 36.126480 -115.139280 205 2949ft 92kts
23-Mar-20 17:26 36.104375 -115.153493 204 2339ft 85kts
23-Mar-20 17:27 36.089228 -115.162975 276 2185ft 14kts

Navigation Log

Ident Type
Flight plan parsing failed, navigation log unavailable